sensor_id;sensor_type;location;lat;lon;timestamp;temperature;humidity
18153;DHT22;9202;51.578;7.734;2023-02-13T00:01:22;7.90;99.90
18153;DHT22;9202;51.578;7.734;2023-02-13T00:03:25;7.90;99.90
18153;DHT22;9202;51.578;7.734;2023-02-13T00:05:27;7.90;99.90
18153;DHT22;9202;51.578;7.734;2023-02-13T00:07:30;7.90;99.90
18153;DHT22;9202;51.578;7.734;2023-02-13T00:09:32;8.00;99.90
18153;DHT22;9202;51.578;7.734;2023-02-13T00:11:35;8.10;99.90
18153;DHT22;9202;51.578;7.734;2023-02-13T00:13:38;8.00;99.90
18153;DHT22;9202;51.578;7.734;2023-02-13T00:15:41;8.00;99.90
18153;DHT22;9202;51.578;7.734;2023-02-13T00:17:44;7.90;99.90
18153;DHT22;9202;51.578;7.734;2023-02-13T00:19:46;7.90;99.90
18153;DHT22;9202;51.578;7.734;2023-02-13T00:21:49;7.90;99.90
18153;DHT22;9202;51.578;7.734;2023-02-13T00:23:51;8.00;99.90
18153;DHT22;9202;51.578;7.734;2023-02-13T00:25:54;7.90;99.90
18153;DHT22;9202;51.578;7.734;2023-02-13T00:27:57;7.80;99.90
18153;DHT22;9202;51.578;7.734;2023-02-13T00:29:59;7.80;99.90
18153;DHT22;9202;51.578;7.734;2023-02-13T00:32:02;7.80;99.90
18153;DHT22;9202;51.578;7.734;2023-02-13T00:34:05;7.80;99.90
18153;DHT22;9202;51.578;7.734;2023-02-13T00:36:10;7.90;99.90
18153;DHT22;9202;51.578;7.734;2023-02-13T00:38:13;7.90;99.90
18153;DHT22;9202;51.578;7.734;2023-02-13T00:40:16;7.80;99.90
18153;DHT22;9202;51.578;7.734;2023-02-13T00:42:18;7.80;99.90
18153;DHT22;9202;51.578;7.734;2023-02-13T00:44:24;7.80;99.90
18153;DHT22;9202;51.578;7.734;2023-02-13T00:46:26;7.70;99.90
18153;DHT22;9202;51.578;7.734;2023-02-13T00:48:30;7.70;99.90
18153;DHT22;9202;51.578;7.734;2023-02-13T00:50:33;7.70;99.90
18153;DHT22;9202;51.578;7.734;2023-02-13T00:52:36;7.70;99.90
18153;DHT22;9202;51.578;7.734;2023-02-13T00:54:39;7.70;99.90
18153;DHT22;9202;51.578;7.734;2023-02-13T00:56:42;7.70;99.90
18153;DHT22;9202;51.578;7.734;2023-02-13T00:58:44;7.70;99.90
18153;DHT22;9202;51.578;7.734;2023-02-13T01:00:48;7.70;99.90
18153;DHT22;9202;51.578;7.734;2023-02-13T01:02:52;7.60;99.90
18153;DHT22;9202;51.578;7.734;2023-02-13T01:04:55;7.70;99.90
18153;DHT22;9202;51.578;7.734;2023-02-13T01:06:59;7.70;99.90
18153;DHT22;9202;51.578;7.734;2023-02-13T01:09:02;7.80;99.90
18153;DHT22;9202;51.578;7.734;2023-02-13T01:11:05;7.60;99.90
18153;DHT22;9202;51.578;7.734;2023-02-13T01:13:08;7.70;99.90
18153;DHT22;9202;51.578;7.734;2023-02-13T01:15:11;7.70;99.90
18153;DHT22;9202;51.578;7.734;2023-02-13T01:17:14;7.70;99.90
18153;DHT22;9202;51.578;7.734;2023-02-13T01:19:17;7.70;99.90
18153;DHT22;9202;51.578;7.734;2023-02-13T01:21:20;7.60;99.90
18153;DHT22;9202;51.578;7.734;2023-02-13T01:23:24;7.60;99.90
18153;DHT22;9202;51.578;7.734;2023-02-13T01:25:26;7.60;99.90
18153;DHT22;9202;51.578;7.734;2023-02-13T01:27:31;7.60;99.90
18153;DHT22;9202;51.578;7.734;2023-02-13T01:29:33;7.60;99.90
18153;DHT22;9202;51.578;7.734;2023-02-13T01:31:36;7.60;99.90
18153;DHT22;9202;51.578;7.734;2023-02-13T01:33:39;7.60;99.90
18153;DHT22;9202;51.578;7.734;2023-02-13T01:35:42;7.60;99.90
18153;DHT22;9202;51.578;7.734;2023-02-13T01:37:44;7.60;99.90
18153;DHT22;9202;51.578;7.734;2023-02-13T01:39:47;7.60;99.90
18153;DHT22;9202;51.578;7.734;2023-02-13T01:41:50;7.60;99.90
18153;DHT22;9202;51.578;7.734;2023-02-13T01:43:53;7.60;99.90
18153;DHT22;9202;51.578;7.734;2023-02-13T01:45:56;7.60;99.90
18153;DHT22;9202;51.578;7.734;2023-02-13T01:47:59;7.70;99.90
18153;DHT22;9202;51.578;7.734;2023-02-13T01:50:04;7.60;99.90
18153;DHT22;9202;51.578;7.734;2023-02-13T01:52:08;7.60;99.90
18153;DHT22;9202;51.578;7.734;2023-02-13T01:54:12;7.60;99.90
18153;DHT22;9202;51.578;7.734;2023-02-13T01:56:17;7.60;99.90
18153;DHT22;9202;51.578;7.734;2023-02-13T01:58:22;7.60;99.90
18153;DHT22;9202;51.578;7.734;2023-02-13T02:00:26;7.60;99.90
18153;DHT22;9202;51.578;7.734;2023-02-13T02:02:29;7.60;99.90
18153;DHT22;9202;51.578;7.734;2023-02-13T02:04:34;7.70;99.90
18153;DHT22;9202;51.578;7.734;2023-02-13T02:06:41;7.60;99.90
18153;DHT22;9202;51.578;7.734;2023-02-13T02:08:45;7.60;99.90
18153;DHT22;9202;51.578;7.734;2023-02-13T02:10:50;7.60;99.90
18153;DHT22;9202;51.578;7.734;2023-02-13T02:12:57;7.60;99.90
18153;DHT22;9202;51.578;7.734;2023-02-13T02:14:58;7.60;99.90
18153;DHT22;9202;51.578;7.734;2023-02-13T02:17:03;7.60;99.90
18153;DHT22;9202;51.578;7.734;2023-02-13T02:19:08;7.60;99.90
18153;DHT22;9202;51.578;7.734;2023-02-13T02:28:34;7.80;99.90
18153;DHT22;9202;51.578;7.734;2023-02-13T02:33:12;7.80;99.90
18153;DHT22;9202;51.578;7.734;2023-02-13T02:35:20;7.80;99.90
18153;DHT22;9202;51.578;7.734;2023-02-13T02:37:28;7.80;99.90
18153;DHT22;9202;51.578;7.734;2023-02-13T02:39:31;8.30;99.90
18153;DHT22;9202;51.578;7.734;2023-02-13T02:41:38;7.80;99.90
18153;DHT22;9202;51.578;7.734;2023-02-13T02:43:48;7.80;99.90
18153;DHT22;9202;51.578;7.734;2023-02-13T02:45:53;7.80;99.90
18153;DHT22;9202;51.578;7.734;2023-02-13T02:47:58;7.80;99.90
18153;DHT22;9202;51.578;7.734;2023-02-13T02:50:32;7.80;99.90
18153;DHT22;9202;51.578;7.734;2023-02-13T02:52:39;7.90;99.90
18153;DHT22;9202;51.578;7.734;2023-02-13T02:54:44;7.80;99.90
18153;DHT22;9202;51.578;7.734;2023-02-13T02:57:08;7.80;99.90
18153;DHT22;9202;51.578;7.734;2023-02-13T02:59:12;7.80;99.90
18153;DHT22;9202;51.578;7.734;2023-02-13T03:01:34;7.90;99.90
18153;DHT22;9202;51.578;7.734;2023-02-13T03:03:56;7.90;99.90
18153;DHT22;9202;51.578;7.734;2023-02-13T03:06:18;7.90;99.90
18153;DHT22;9202;51.578;7.734;2023-02-13T03:08:23;8.00;99.90
18153;DHT22;9202;51.578;7.734;2023-02-13T03:10:45;7.90;99.90
18153;DHT22;9202;51.578;7.734;2023-02-13T03:13:08;8.00;99.90
18153;DHT22;9202;51.578;7.734;2023-02-13T03:15:22;7.90;99.90
18153;DHT22;9202;51.578;7.734;2023-02-13T03:17:25;7.90;99.90
18153;DHT22;9202;51.578;7.734;2023-02-13T03:19:51;7.90;99.90
18153;DHT22;9202;51.578;7.734;2023-02-13T03:22:13;7.90;99.90
18153;DHT22;9202;51.578;7.734;2023-02-13T03:24:21;7.90;99.90
18153;DHT22;9202;51.578;7.734;2023-02-13T03:26:34;7.90;99.90
18153;DHT22;9202;51.578;7.734;2023-02-13T03:28:39;7.90;99.90
18153;DHT22;9202;51.578;7.734;2023-02-13T03:31:03;7.90;99.90
18153;DHT22;9202;51.578;7.734;2023-02-13T03:33:09;7.90;99.90
18153;DHT22;9202;51.578;7.734;2023-02-13T03:35:18;7.80;99.90
18153;DHT22;9202;51.578;7.734;2023-02-13T03:37:38;7.80;99.90
18153;DHT22;9202;51.578;7.734;2023-02-13T03:39:59;7.80;99.90
18153;DHT22;9202;51.578;7.734;2023-02-13T03:42:03;7.80;99.90
18153;DHT22;9202;51.578;7.734;2023-02-13T03:44:10;7.70;99.90
18153;DHT22;9202;51.578;7.734;2023-02-13T03:46:13;7.20;99.90
18153;DHT22;9202;51.578;7.734;2023-02-13T03:48:17;7.80;99.90
18153;DHT22;9202;51.578;7.734;2023-02-13T03:50:39;7.80;99.90
18153;DHT22;9202;51.578;7.734;2023-02-13T03:52:43;7.80;99.90
18153;DHT22;9202;51.578;7.734;2023-02-13T03:54:48;7.70;99.90
18153;DHT22;9202;51.578;7.734;2023-02-13T03:57:10;7.70;99.90
18153;DHT22;9202;51.578;7.734;2023-02-13T03:59:33;7.70;99.90
18153;DHT22;9202;51.578;7.734;2023-02-13T04:01:37;7.70;99.90
18153;DHT22;9202;51.578;7.734;2023-02-13T04:03:41;7.70;99.90
18153;DHT22;9202;51.578;7.734;2023-02-13T04:05:45;7.70;99.90
18153;DHT22;9202;51.578;7.734;2023-02-13T04:07:49;7.70;99.90
18153;DHT22;9202;51.578;7.734;2023-02-13T04:09:51;7.70;99.90
18153;DHT22;9202;51.578;7.734;2023-02-13T04:11:56;7.70;99.90
18153;DHT22;9202;51.578;7.734;2023-02-13T04:13:59;7.60;99.90
18153;DHT22;9202;51.578;7.734;2023-02-13T04:16:03;7.60;99.90
18153;DHT22;9202;51.578;7.734;2023-02-13T04:18:09;7.60;99.90
18153;DHT22;9202;51.578;7.734;2023-02-13T04:20:12;7.60;99.90
18153;DHT22;9202;51.578;7.734;2023-02-13T04:22:15;7.70;99.90
18153;DHT22;9202;51.578;7.734;2023-02-13T04:24:18;7.60;99.90
18153;DHT22;9202;51.578;7.734;2023-02-13T04:26:20;7.60;99.90
18153;DHT22;9202;51.578;7.734;2023-02-13T04:28:24;7.60;99.90
18153;DHT22;9202;51.578;7.734;2023-02-13T04:30:27;7.60;99.90
18153;DHT22;9202;51.578;7.734;2023-02-13T04:32:29;7.60;99.90
18153;DHT22;9202;51.578;7.734;2023-02-13T04:34:32;7.60;99.90
18153;DHT22;9202;51.578;7.734;2023-02-13T04:36:34;7.60;99.90
18153;DHT22;9202;51.578;7.734;2023-02-13T04:38:37;7.60;99.90
18153;DHT22;9202;51.578;7.734;2023-02-13T04:40:40;7.60;99.90
18153;DHT22;9202;51.578;7.734;2023-02-13T04:42:42;7.60;99.90
18153;DHT22;9202;51.578;7.734;2023-02-13T04:44:45;7.60;99.90
18153;DHT22;9202;51.578;7.734;2023-02-13T04:46:47;7.60;99.90
18153;DHT22;9202;51.578;7.734;2023-02-13T04:48:50;7.60;99.90
18153;DHT22;9202;51.578;7.734;2023-02-13T04:50:52;7.60;99.90
18153;DHT22;9202;51.578;7.734;2023-02-13T04:52:56;7.50;99.90
18153;DHT22;9202;51.578;7.734;2023-02-13T04:54:59;7.60;99.90
18153;DHT22;9202;51.578;7.734;2023-02-13T04:57:02;7.60;99.90
18153;DHT22;9202;51.578;7.734;2023-02-13T04:59:04;7.60;99.90
18153;DHT22;9202;51.578;7.734;2023-02-13T05:01:13;7.60;99.90
18153;DHT22;9202;51.578;7.734;2023-02-13T05:03:16;7.50;99.90
18153;DHT22;9202;51.578;7.734;2023-02-13T05:05:19;7.50;99.90
18153;DHT22;9202;51.578;7.734;2023-02-13T05:07:22;7.50;99.90
18153;DHT22;9202;51.578;7.734;2023-02-13T05:09:24;7.50;99.90
18153;DHT22;9202;51.578;7.734;2023-02-13T05:11:27;7.50;99.90
18153;DHT22;9202;51.578;7.734;2023-02-13T05:13:29;7.60;99.90
18153;DHT22;9202;51.578;7.734;2023-02-13T05:15:32;7.60;99.90
18153;DHT22;9202;51.578;7.734;2023-02-13T05:17:34;7.50;99.90
18153;DHT22;9202;51.578;7.734;2023-02-13T05:19:37;7.50;99.90
18153;DHT22;9202;51.578;7.734;2023-02-13T05:21:40;7.50;99.90
18153;DHT22;9202;51.578;7.734;2023-02-13T05:24:00;7.50;99.90
18153;DHT22;9202;51.578;7.734;2023-02-13T05:26:03;7.50;99.90
18153;DHT22;9202;51.578;7.734;2023-02-13T05:28:06;7.50;99.90
18153;DHT22;9202;51.578;7.734;2023-02-13T05:30:12;7.50;99.90
18153;DHT22;9202;51.578;7.734;2023-02-13T05:32:15;7.50;99.90
18153;DHT22;9202;51.578;7.734;2023-02-13T05:34:18;7.60;99.90
18153;DHT22;9202;51.578;7.734;2023-02-13T05:36:20;7.60;99.90
18153;DHT22;9202;51.578;7.734;2023-02-13T05:38:23;7.60;99.90
18153;DHT22;9202;51.578;7.734;2023-02-13T05:40:25;7.60;99.90
18153;DHT22;9202;51.578;7.734;2023-02-13T05:42:28;7.50;99.90
18153;DHT22;9202;51.578;7.734;2023-02-13T05:44:31;7.50;99.90
18153;DHT22;9202;51.578;7.734;2023-02-13T05:46:33;7.60;99.90
18153;DHT22;9202;51.578;7.734;2023-02-13T05:48:36;7.50;99.90
18153;DHT22;9202;51.578;7.734;2023-02-13T05:50:39;7.50;99.90
18153;DHT22;9202;51.578;7.734;2023-02-13T05:52:41;7.50;99.90
18153;DHT22;9202;51.578;7.734;2023-02-13T05:54:44;7.60;99.90
18153;DHT22;9202;51.578;7.734;2023-02-13T05:56:46;7.50;99.90
18153;DHT22;9202;51.578;7.734;2023-02-13T05:58:50;7.50;99.90
18153;DHT22;9202;51.578;7.734;2023-02-13T06:00:55;7.50;99.90
18153;DHT22;9202;51.578;7.734;2023-02-13T06:02:58;7.50;99.90
18153;DHT22;9202;51.578;7.734;2023-02-13T06:05:01;7.50;99.90
18153;DHT22;9202;51.578;7.734;2023-02-13T06:07:03;7.50;99.90
18153;DHT22;9202;51.578;7.734;2023-02-13T06:09:06;7.50;99.90
18153;DHT22;9202;51.578;7.734;2023-02-13T06:11:09;7.50;99.90
18153;DHT22;9202;51.578;7.734;2023-02-13T06:13:11;7.60;99.90
18153;DHT22;9202;51.578;7.734;2023-02-13T06:15:14;7.60;99.90
18153;DHT22;9202;51.578;7.734;2023-02-13T06:17:16;7.60;99.90
18153;DHT22;9202;51.578;7.734;2023-02-13T06:19:19;7.50;99.90
18153;DHT22;9202;51.578;7.734;2023-02-13T06:21:21;7.60;99.90
18153;DHT22;9202;51.578;7.734;2023-02-13T06:23:24;7.60;99.90
18153;DHT22;9202;51.578;7.734;2023-02-13T06:25:26;7.60;99.90
18153;DHT22;9202;51.578;7.734;2023-02-13T06:27:29;7.60;99.90
18153;DHT22;9202;51.578;7.734;2023-02-13T06:29:31;7.70;99.90
18153;DHT22;9202;51.578;7.734;2023-02-13T06:31:34;7.70;99.90
18153;DHT22;9202;51.578;7.734;2023-02-13T06:33:37;7.70;99.90
18153;DHT22;9202;51.578;7.734;2023-02-13T06:35:40;7.70;99.90
18153;DHT22;9202;51.578;7.734;2023-02-13T06:37:42;7.70;99.90
18153;DHT22;9202;51.578;7.734;2023-02-13T06:39:45;7.70;99.90
18153;DHT22;9202;51.578;7.734;2023-02-13T06:41:47;7.70;99.90
18153;DHT22;9202;51.578;7.734;2023-02-13T06:43:50;7.60;99.90
18153;DHT22;9202;51.578;7.734;2023-02-13T06:45:52;7.60;99.90
18153;DHT22;9202;51.578;7.734;2023-02-13T06:47:55;7.60;99.90
18153;DHT22;9202;51.578;7.734;2023-02-13T06:49:59;7.60;99.90
18153;DHT22;9202;51.578;7.734;2023-02-13T06:52:01;7.60;99.90
18153;DHT22;9202;51.578;7.734;2023-02-13T06:54:04;7.60;99.90
18153;DHT22;9202;51.578;7.734;2023-02-13T06:56:06;7.60;99.90
18153;DHT22;9202;51.578;7.734;2023-02-13T06:58:09;7.60;99.90
18153;DHT22;9202;51.578;7.734;2023-02-13T07:00:12;7.60;99.90
18153;DHT22;9202;51.578;7.734;2023-02-13T07:02:16;7.60;99.90
18153;DHT22;9202;51.578;7.734;2023-02-13T07:04:18;7.50;99.90
18153;DHT22;9202;51.578;7.734;2023-02-13T07:06:21;7.50;99.90
18153;DHT22;9202;51.578;7.734;2023-02-13T07:08:23;7.50;99.90
18153;DHT22;9202;51.578;7.734;2023-02-13T07:10:26;7.40;99.90
18153;DHT22;9202;51.578;7.734;2023-02-13T07:12:28;7.40;99.90
18153;DHT22;9202;51.578;7.734;2023-02-13T07:14:31;7.30;99.90
18153;DHT22;9202;51.578;7.734;2023-02-13T07:16:33;7.30;99.90
18153;DHT22;9202;51.578;7.734;2023-02-13T07:18:37;7.20;99.90
18153;DHT22;9202;51.578;7.734;2023-02-13T07:20:40;7.20;99.90
18153;DHT22;9202;51.578;7.734;2023-02-13T07:22:42;7.30;99.90
18153;DHT22;9202;51.578;7.734;2023-02-13T07:24:45;7.30;99.90
18153;DHT22;9202;51.578;7.734;2023-02-13T07:26:47;7.20;99.90
18153;DHT22;9202;51.578;7.734;2023-02-13T07:28:50;7.20;99.90
18153;DHT22;9202;51.578;7.734;2023-02-13T07:30:54;7.20;99.90
18153;DHT22;9202;51.578;7.734;2023-02-13T07:32:59;7.20;99.90
18153;DHT22;9202;51.578;7.734;2023-02-13T07:35:01;7.10;99.90
18153;DHT22;9202;51.578;7.734;2023-02-13T07:37:04;7.20;99.90
18153;DHT22;9202;51.578;7.734;2023-02-13T07:39:07;7.20;99.90
18153;DHT22;9202;51.578;7.734;2023-02-13T07:41:09;7.20;99.90
18153;DHT22;9202;51.578;7.734;2023-02-13T07:43:12;7.20;99.90
18153;DHT22;9202;51.578;7.734;2023-02-13T07:45:14;7.20;99.90
18153;DHT22;9202;51.578;7.734;2023-02-13T07:47:17;7.10;99.90
18153;DHT22;9202;51.578;7.734;2023-02-13T07:49:21;7.10;99.90
18153;DHT22;9202;51.578;7.734;2023-02-13T07:51:24;7.20;99.90
18153;DHT22;9202;51.578;7.734;2023-02-13T07:53:26;7.10;99.90
18153;DHT22;9202;51.578;7.734;2023-02-13T07:55:29;7.10;99.90
18153;DHT22;9202;51.578;7.734;2023-02-13T07:57:40;7.20;99.90
18153;DHT22;9202;51.578;7.734;2023-02-13T07:59:57;7.30;99.90
18153;DHT22;9202;51.578;7.734;2023-02-13T08:02:00;7.30;99.90
18153;DHT22;9202;51.578;7.734;2023-02-13T08:04:03;7.40;99.90
18153;DHT22;9202;51.578;7.734;2023-02-13T08:06:06;7.40;99.90
18153;DHT22;9202;51.578;7.734;2023-02-13T08:08:09;7.70;99.90
18153;DHT22;9202;51.578;7.734;2023-02-13T08:10:12;7.90;99.90
18153;DHT22;9202;51.578;7.734;2023-02-13T08:12:33;8.20;99.90
18153;DHT22;9202;51.578;7.734;2023-02-13T08:14:36;8.50;99.90
18153;DHT22;9202;51.578;7.734;2023-02-13T08:16:39;8.50;99.90
18153;DHT22;9202;51.578;7.734;2023-02-13T08:18:41;8.50;99.90
18153;DHT22;9202;51.578;7.734;2023-02-13T08:20:44;8.80;99.90
18153;DHT22;9202;51.578;7.734;2023-02-13T08:22:46;8.70;99.90
18153;DHT22;9202;51.578;7.734;2023-02-13T08:24:49;8.70;99.90
18153;DHT22;9202;51.578;7.734;2023-02-13T08:26:51;8.90;99.90
18153;DHT22;9202;51.578;7.734;2023-02-13T08:28:54;9.10;99.90
18153;DHT22;9202;51.578;7.734;2023-02-13T08:30:57;9.20;99.90
18153;DHT22;9202;51.578;7.734;2023-02-13T08:32:59;9.30;99.90
18153;DHT22;9202;51.578;7.734;2023-02-13T08:35:02;9.50;99.90
18153;DHT22;9202;51.578;7.734;2023-02-13T08:37:05;9.40;99.90
18153;DHT22;9202;51.578;7.734;2023-02-13T08:39:08;9.50;99.90
18153;DHT22;9202;51.578;7.734;2023-02-13T08:41:10;9.20;99.90
18153;DHT22;9202;51.578;7.734;2023-02-13T08:43:13;9.70;99.90
18153;DHT22;9202;51.578;7.734;2023-02-13T08:45:16;9.80;99.90
18153;DHT22;9202;51.578;7.734;2023-02-13T08:47:18;9.50;99.90
18153;DHT22;9202;51.578;7.734;2023-02-13T08:49:21;9.80;99.90
18153;DHT22;9202;51.578;7.734;2023-02-13T08:51:25;9.90;99.90
18153;DHT22;9202;51.578;7.734;2023-02-13T08:53:28;9.70;99.90
18153;DHT22;9202;51.578;7.734;2023-02-13T08:55:31;9.50;99.90
18153;DHT22;9202;51.578;7.734;2023-02-13T08:57:33;9.50;99.90
18153;DHT22;9202;51.578;7.734;2023-02-13T08:59:36;9.70;99.90
18153;DHT22;9202;51.578;7.734;2023-02-13T09:01:39;9.30;99.90
18153;DHT22;9202;51.578;7.734;2023-02-13T09:03:41;9.30;99.90
18153;DHT22;9202;51.578;7.734;2023-02-13T09:05:44;9.30;99.90
18153;DHT22;9202;51.578;7.734;2023-02-13T09:07:48;9.20;99.90
18153;DHT22;9202;51.578;7.734;2023-02-13T09:09:51;9.20;99.90
18153;DHT22;9202;51.578;7.734;2023-02-13T09:11:53;9.50;99.90
18153;DHT22;9202;51.578;7.734;2023-02-13T09:13:59;9.10;99.90
18153;DHT22;9202;51.578;7.734;2023-02-13T09:16:02;9.00;99.90
18153;DHT22;9202;51.578;7.734;2023-02-13T09:18:08;9.10;99.90
18153;DHT22;9202;51.578;7.734;2023-02-13T09:20:12;9.00;99.90
18153;DHT22;9202;51.578;7.734;2023-02-13T09:22:15;8.90;99.90
18153;DHT22;9202;51.578;7.734;2023-02-13T09:24:18;8.90;99.90
18153;DHT22;9202;51.578;7.734;2023-02-13T09:26:21;8.90;99.90
18153;DHT22;9202;51.578;7.734;2023-02-13T09:28:23;9.10;99.90
18153;DHT22;9202;51.578;7.734;2023-02-13T09:30:26;9.10;99.90
18153;DHT22;9202;51.578;7.734;2023-02-13T09:32:28;9.00;99.90
18153;DHT22;9202;51.578;7.734;2023-02-13T09:34:31;9.20;99.90
18153;DHT22;9202;51.578;7.734;2023-02-13T09:36:33;9.10;99.90
18153;DHT22;9202;51.578;7.734;2023-02-13T09:38:37;8.90;99.90
18153;DHT22;9202;51.578;7.734;2023-02-13T09:40:40;9.00;99.90
18153;DHT22;9202;51.578;7.734;2023-02-13T09:42:44;9.00;99.90
18153;DHT22;9202;51.578;7.734;2023-02-13T09:44:47;9.10;99.90
18153;DHT22;9202;51.578;7.734;2023-02-13T09:46:50;9.10;99.90
18153;DHT22;9202;51.578;7.734;2023-02-13T09:48:54;9.10;99.90
18153;DHT22;9202;51.578;7.734;2023-02-13T09:50:57;9.30;99.90
18153;DHT22;9202;51.578;7.734;2023-02-13T09:53:00;9.30;99.90
18153;DHT22;9202;51.578;7.734;2023-02-13T09:55:09;9.60;99.90
18153;DHT22;9202;51.578;7.734;2023-02-13T09:57:13;9.80;99.90
18153;DHT22;9202;51.578;7.734;2023-02-13T09:59:25;9.40;99.90
18153;DHT22;9202;51.578;7.734;2023-02-13T10:01:25;9.40;99.90
18153;DHT22;9202;51.578;7.734;2023-02-13T10:03:28;9.70;99.90
18153;DHT22;9202;51.578;7.734;2023-02-13T10:07:59;9.70;99.90
18153;DHT22;9202;51.578;7.734;2023-02-13T10:10:07;9.80;99.90
18153;DHT22;9202;51.578;7.734;2023-02-13T10:12:15;9.80;99.90
18153;DHT22;9202;51.578;7.734;2023-02-13T10:14:20;9.90;99.90
18153;DHT22;9202;51.578;7.734;2023-02-13T10:16:24;9.80;99.90
18153;DHT22;9202;51.578;7.734;2023-02-13T10:18:32;9.80;99.90
18153;DHT22;9202;51.578;7.734;2023-02-13T10:20:36;9.90;99.90
18153;DHT22;9202;51.578;7.734;2023-02-13T10:22:40;9.80;99.90
18153;DHT22;9202;51.578;7.734;2023-02-13T10:24:45;10.00;99.90
18153;DHT22;9202;51.578;7.734;2023-02-13T10:26:48;10.20;99.90
18153;DHT22;9202;51.578;7.734;2023-02-13T10:28:53;10.30;99.90
18153;DHT22;9202;51.578;7.734;2023-02-13T10:31:16;10.40;99.90
18153;DHT22;9202;51.578;7.734;2023-02-13T10:33:20;10.30;99.90
18153;DHT22;9202;51.578;7.734;2023-02-13T10:35:25;10.70;99.90
18153;DHT22;9202;51.578;7.734;2023-02-13T10:37:28;10.90;99.90
18153;DHT22;9202;51.578;7.734;2023-02-13T10:39:31;10.40;99.90
18153;DHT22;9202;51.578;7.734;2023-02-13T10:41:38;10.80;99.90
18153;DHT22;9202;51.578;7.734;2023-02-13T10:43:46;10.60;99.90
18153;DHT22;9202;51.578;7.734;2023-02-13T10:45:58;10.50;99.90
18153;DHT22;9202;51.578;7.734;2023-02-13T10:48:05;11.00;99.90
18153;DHT22;9202;51.578;7.734;2023-02-13T10:50:12;10.70;99.90
18153;DHT22;9202;51.578;7.734;2023-02-13T10:52:18;10.50;99.90
18153;DHT22;9202;51.578;7.734;2023-02-13T10:54:26;10.30;99.90
18153;DHT22;9202;51.578;7.734;2023-02-13T10:56:29;10.70;99.90
18153;DHT22;9202;51.578;7.734;2023-02-13T10:58:40;11.30;99.90
18153;DHT22;9202;51.578;7.734;2023-02-13T11:00:44;11.30;99.90
18153;DHT22;9202;51.578;7.734;2023-02-13T11:02:48;11.40;99.90
18153;DHT22;9202;51.578;7.734;2023-02-13T11:04:51;11.50;99.90
18153;DHT22;9202;51.578;7.734;2023-02-13T11:06:55;11.20;99.90
18153;DHT22;9202;51.578;7.734;2023-02-13T11:08:58;11.30;99.90
18153;DHT22;9202;51.578;7.734;2023-02-13T11:11:01;11.10;99.90
18153;DHT22;9202;51.578;7.734;2023-02-13T11:13:14;11.40;99.90
18153;DHT22;9202;51.578;7.734;2023-02-13T11:15:21;11.20;99.90
18153;DHT22;9202;51.578;7.734;2023-02-13T11:17:24;10.70;99.90
18153;DHT22;9202;51.578;7.734;2023-02-13T11:19:29;10.80;99.90
18153;DHT22;9202;51.578;7.734;2023-02-13T11:21:33;10.90;99.90
18153;DHT22;9202;51.578;7.734;2023-02-13T11:23:38;11.30;99.90
18153;DHT22;9202;51.578;7.734;2023-02-13T11:25:41;11.60;99.90
18153;DHT22;9202;51.578;7.734;2023-02-13T11:27:46;11.40;99.90
18153;DHT22;9202;51.578;7.734;2023-02-13T11:29:53;11.30;99.90
18153;DHT22;9202;51.578;7.734;2023-02-13T11:32:06;11.30;99.90
18153;DHT22;9202;51.578;7.734;2023-02-13T11:34:22;11.50;99.90
18153;DHT22;9202;51.578;7.734;2023-02-13T11:36:23;11.30;99.90
18153;DHT22;9202;51.578;7.734;2023-02-13T11:38:26;11.70;99.90
18153;DHT22;9202;51.578;7.734;2023-02-13T11:40:29;12.00;99.90
18153;DHT22;9202;51.578;7.734;2023-02-13T11:42:33;11.80;99.90
18153;DHT22;9202;51.578;7.734;2023-02-13T11:44:36;12.00;99.90
18153;DHT22;9202;51.578;7.734;2023-02-13T11:46:45;12.00;99.90
18153;DHT22;9202;51.578;7.734;2023-02-13T11:48:55;11.90;99.90
18153;DHT22;9202;51.578;7.734;2023-02-13T11:50:58;11.70;99.90
18153;DHT22;9202;51.578;7.734;2023-02-13T11:53:03;11.60;99.90
18153;DHT22;9202;51.578;7.734;2023-02-13T11:55:23;11.40;99.90
18153;DHT22;9202;51.578;7.734;2023-02-13T11:57:18;11.60;99.90
18153;DHT22;9202;51.578;7.734;2023-02-13T11:59:22;11.90;99.90
18153;DHT22;9202;51.578;7.734;2023-02-13T12:01:26;12.10;99.90
18153;DHT22;9202;51.578;7.734;2023-02-13T12:03:30;12.10;99.90
18153;DHT22;9202;51.578;7.734;2023-02-13T12:05:33;12.00;99.90
18153;DHT22;9202;51.578;7.734;2023-02-13T12:07:36;12.10;99.90
18153;DHT22;9202;51.578;7.734;2023-02-13T12:09:39;12.00;99.90
18153;DHT22;9202;51.578;7.734;2023-02-13T12:11:44;11.90;99.90
18153;DHT22;9202;51.578;7.734;2023-02-13T12:13:47;12.00;99.90
18153;DHT22;9202;51.578;7.734;2023-02-13T12:15:52;11.70;99.90
18153;DHT22;9202;51.578;7.734;2023-02-13T12:18:05;11.80;99.90
18153;DHT22;9202;51.578;7.734;2023-02-13T12:20:11;11.70;99.90
18153;DHT22;9202;51.578;7.734;2023-02-13T12:22:19;11.40;99.90
18153;DHT22;9202;51.578;7.734;2023-02-13T12:24:28;11.30;99.90
18153;DHT22;9202;51.578;7.734;2023-02-13T12:26:31;11.40;99.90
18153;DHT22;9202;51.578;7.734;2023-02-13T12:28:40;11.40;99.90
18153;DHT22;9202;51.578;7.734;2023-02-13T12:30:58;11.20;99.90
18153;DHT22;9202;51.578;7.734;2023-02-13T12:33:06;11.60;99.90
18153;DHT22;9202;51.578;7.734;2023-02-13T12:35:23;11.80;99.90
18153;DHT22;9202;51.578;7.734;2023-02-13T12:37:30;11.90;99.90
18153;DHT22;9202;51.578;7.734;2023-02-13T12:39:34;11.90;99.90
18153;DHT22;9202;51.578;7.734;2023-02-13T12:41:40;11.60;99.90
18153;DHT22;9202;51.578;7.734;2023-02-13T12:46:04;11.80;99.90
18153;DHT22;9202;51.578;7.734;2023-02-13T12:48:11;11.40;99.90
18153;DHT22;9202;51.578;7.734;2023-02-13T12:50:18;11.40;99.90
18153;DHT22;9202;51.578;7.734;2023-02-13T12:52:26;11.30;99.90
18153;DHT22;9202;51.578;7.734;2023-02-13T12:54:37;11.50;99.90
18153;DHT22;9202;51.578;7.734;2023-02-13T12:56:50;11.60;99.90
18153;DHT22;9202;51.578;7.734;2023-02-13T12:58:59;11.60;99.90
18153;DHT22;9202;51.578;7.734;2023-02-13T13:01:05;11.30;99.90
18153;DHT22;9202;51.578;7.734;2023-02-13T13:03:14;11.30;99.90
18153;DHT22;9202;51.578;7.734;2023-02-13T13:05:18;11.40;99.90
18153;DHT22;9202;51.578;7.734;2023-02-13T13:07:25;11.50;99.90
18153;DHT22;9202;51.578;7.734;2023-02-13T13:09:41;11.50;99.90
18153;DHT22;9202;51.578;7.734;2023-02-13T13:11:55;11.60;99.90
18153;DHT22;9202;51.578;7.734;2023-02-13T13:14:00;11.60;99.90
18153;DHT22;9202;51.578;7.734;2023-02-13T13:16:05;11.60;99.90
18153;DHT22;9202;51.578;7.734;2023-02-13T13:18:13;11.70;99.90
18153;DHT22;9202;51.578;7.734;2023-02-13T13:20:31;11.60;99.90
18153;DHT22;9202;51.578;7.734;2023-02-13T13:22:35;11.50;99.90
18153;DHT22;9202;51.578;7.734;2023-02-13T13:24:45;11.50;99.90
18153;DHT22;9202;51.578;7.734;2023-02-13T13:26:47;11.70;99.90
18153;DHT22;9202;51.578;7.734;2023-02-13T13:28:51;11.90;99.90
18153;DHT22;9202;51.578;7.734;2023-02-13T13:30:55;11.80;99.90
18153;DHT22;9202;51.578;7.734;2023-02-13T13:33:01;11.90;99.90
18153;DHT22;9202;51.578;7.734;2023-02-13T13:35:05;11.60;99.90
18153;DHT22;9202;51.578;7.734;2023-02-13T13:37:08;11.60;99.90
18153;DHT22;9202;51.578;7.734;2023-02-13T13:39:22;11.80;99.90
18153;DHT22;9202;51.578;7.734;2023-02-13T13:41:26;11.70;99.90
18153;DHT22;9202;51.578;7.734;2023-02-13T13:43:31;11.70;99.90
18153;DHT22;9202;51.578;7.734;2023-02-13T13:45:36;11.90;99.90
18153;DHT22;9202;51.578;7.734;2023-02-13T13:47:46;11.90;99.90